ダブリン の空港の天気 - METARとTAF

ダブリン空港 ( EIDW / DUB ) - アイルランド ダブリン
飛行場実況気象(Metar)
観測時間05/28 11:00 GMT (05/28 10:00 UTC)
風向・風速北 3m/s
視程10km以上
天気現象
少しの雲 雲底高度 670m
全天の4割程度の雲 雲底高度 940m
全天の8割程度の雲 雲底高度 1100m
気温13℃
湿度62%
気圧1029hPa
METAREIDW 281000Z 01005KT 300V080 9999 FEW022 SCT031 BKN036 13/06 Q1029 NOSIG
過去の天気等 Google飛行場航空写真 Wunderground天気予報

過去48時間のMETAR

飛行場予報(TAF)
発表時間: 5/28 06:00 GMT (5/28 05:00 UTC)
予報対象時間: 28日7時 GMT ~ 29日7時 GMT
風向・風速西北西 3m/s
視程10km以上
少しの雲 雲底高度 1220m
28日7時 GMT ~ 28日9時 GMT に徐々に
風向・風速北北東 4m/s
28日15時 GMT ~ 28日17時 GMT に徐々に
風向・風速東 4m/s
28日22時 GMT ~ 28日24時 GMT に徐々に
風向・風速不定 2m/s
TAF EIDW 280500Z 2806/2906 30005KT 9999 FEW040
BECMG 2806/2808 03007KT
BECMG 2814/2816 09007KT
BECMG 2821/2823 VRB03KT